Time;durP1;ratioP1;P1;durP2;ratioP2;P2;SDS_P1;SDS_P2;PMS_P1;PMS_P2;Temp;Humidity;BMP_temperature;BMP_pressure;BME280_temperature;BME280_humidity;BME280_pressure;Samples;Min_cycle;Max_cycle;Signal;HPM_P1;HPM_P2
2022/05/22 00:01:41;;;;;;;0.70;0.70;;;4.80;99.90;;;;;;5077583;28;20690;-83
2022/05/22 00:04:08;;;;;;;0.70;0.70;;;4.70;99.90;;;;;;5059583;28;20197;-83
2022/05/22 00:06:34;;;;;;;0.63;0.63;;;4.70;99.90;;;;;;5059508;28;20227;-84
2022/05/22 00:09:00;;;;;;;0.80;0.80;;;4.70;99.90;;;;;;5061056;28;20201;-83
2022/05/22 00:11:26;;;;;;;0.70;0.70;;;4.70;99.90;;;;;;5059932;28;20211;-83
2022/05/22 00:13:52;;;;;;;0.70;0.70;;;4.60;99.90;;;;;;5077743;28;20232;-84
2022/05/22 00:16:36;;;;;;;1.38;1.27;;;4.60;99.90;;;;;;5078782;28;20295;-83
2022/05/22 00:19:10;;;;;;;0.65;0.65;;;4.60;99.90;;;;;;5064210;28;20204;-83
2022/05/22 00:21:37;;;;;;;0.80;0.80;;;4.60;99.90;;;;;;5063517;28;20614;-83
2022/05/22 00:24:03;;;;;;;0.80;0.80;;;4.60;99.90;;;;;;5063813;28;20671;-84
2022/05/22 00:26:29;;;;;;;0.60;0.60;;;4.60;99.90;;;;;;5081349;28;20197;-85
2022/05/22 00:28:55;;;;;;;0.70;0.70;;;4.60;99.90;;;;;;5063338;28;20223;-84
2022/05/22 00:31:21;;;;;;;0.90;0.90;;;4.60;99.90;;;;;;5062969;28;20699;-84
2022/05/22 00:33:46;;;;;;;0.70;0.70;;;4.60;99.90;;;;;;5063043;28;20258;-84
2022/05/22 00:36:13;;;;;;;0.70;0.70;;;4.70;99.90;;;;;;5063206;28;20224;-83
2022/05/22 00:38:39;;;;;;;0.93;0.93;;;4.70;99.90;;;;;;5063116;28;20212;-84
2022/05/22 00:41:06;;;;;;;0.88;0.88;;;4.80;99.90;;;;;;5063427;28;20689;-84
2022/05/22 00:43:39;;;;;;;0.60;0.60;;;4.80;99.90;;;;;;5063220;28;20605;-84
2022/05/22 00:46:06;;;;;;;0.60;0.60;;;4.70;99.90;;;;;;5062999;28;20208;-83
2022/05/22 00:48:34;;;;;;;1.13;1.05;;;4.70;99.90;;;;;;5063083;28;20193;-83
2022/05/22 00:51:04;;;;;;;0.70;0.70;;;4.60;99.90;;;;;;5081066;28;20189;-83
2022/05/22 00:53:33;;;;;;;0.70;0.70;;;4.60;99.90;;;;;;5080745;28;20197;-84
2022/05/22 00:56:01;;;;;;;0.80;0.80;;;4.60;99.90;;;;;;5059006;28;20232;-84
2022/05/22 00:58:30;;;;;;;0.68;0.68;;;4.60;99.90;;;;;;5048048;28;20194;-84
2022/05/22 01:00:56;;;;;;;0.70;0.70;;;4.50;99.90;;;;;;5040006;28;20198;-82
2022/05/22 01:03:27;;;;;;;0.55;0.55;;;4.50;99.90;;;;;;5039306;28;20205;-82
2022/05/22 01:06:03;;;;;;;0.70;0.70;;;4.50;99.90;;;;;;5042859;28;20267;-81
2022/05/22 01:08:31;;;;;;;0.70;0.70;;;4.50;99.90;;;;;;5042609;28;20197;-82
2022/05/22 01:11:02;;;;;;;0.73;0.73;;;4.50;99.90;;;;;;5042187;28;20204;-81
2022/05/22 01:13:36;;;;;;;1.15;1.05;;;4.40;99.90;;;;;;5044470;28;20209;-81
2022/05/22 01:16:04;;;;;;;0.80;0.80;;;4.40;99.90;;;;;;5080412;28;20220;-82
2022/05/22 01:18:39;;;;;;;1.08;1.02;;;4.40;99.90;;;;;;5062078;28;20567;-81
2022/05/22 01:21:11;;;;;;;1.33;1.23;;;4.40;99.90;;;;;;5079343;28;20282;-82
2022/05/22 01:23:37;;;;;;;0.77;0.77;;;4.40;99.90;;;;;;5062424;28;20193;-82
2022/05/22 01:26:03;;;;;;;0.82;0.82;;;4.40;99.90;;;;;;5062297;28;20696;-81
2022/05/22 01:28:28;;;;;;;1.17;1.15;;;4.40;99.90;;;;;;5080117;28;20275;-81
2022/05/22 01:30:54;;;;;;;0.70;0.70;;;4.40;99.90;;;;;;5080576;28;20266;-81
2022/05/22 01:33:20;;;;;;;0.60;0.60;;;4.40;99.90;;;;;;5078938;28;20258;-81
2022/05/22 01:35:46;;;;;;;0.63;0.63;;;4.30;99.90;;;;;;5062304;28;20193;-81
2022/05/22 01:38:11;;;;;;;0.90;0.90;;;4.40;99.90;;;;;;5062146;28;20207;-82
2022/05/22 01:40:37;;;;;;;0.60;0.60;;;4.40;99.90;;;;;;5079633;28;20177;-81
2022/05/22 01:43:04;;;;;;;0.70;0.70;;;4.30;99.90;;;;;;5061421;28;20200;-81
2022/05/22 01:45:30;;;;;;;0.88;0.88;;;4.30;99.90;;;;;;5078268;28;20207;-81
2022/05/22 01:47:57;;;;;;;0.70;0.70;;;4.30;99.90;;;;;;5061761;28;20199;-81
2022/05/22 01:50:22;;;;;;;0.70;0.70;;;4.30;99.90;;;;;;5063387;28;20744;-81
2022/05/22 01:52:48;;;;;;;0.80;0.80;;;4.30;99.90;;;;;;5077971;28;20197;-81
2022/05/22 01:55:14;;;;;;;0.70;0.70;;;4.30;99.90;;;;;;5079065;28;20267;-81
2022/05/22 01:57:40;;;;;;;0.82;0.82;;;4.30;99.90;;;;;;5079343;28;20192;-81
2022/05/22 02:00:09;;;;;;;0.80;0.80;;;4.30;99.90;;;;;;5078218;28;20299;-82
2022/05/22 02:02:34;;;;;;;0.70;0.70;;;4.30;99.90;;;;;;5058966;28;20659;-81
2022/05/22 02:05:02;;;;;;;0.60;0.60;;;4.30;99.90;;;;;;5060721;28;20196;-81
2022/05/22 02:10:13;;;;;;;0.73;0.73;;;4.30;99.90;;;;;;5077625;28;20195;-81
2022/05/22 02:12:39;;;;;;;1.02;0.93;;;4.30;99.90;;;;;;5061419;28;20212;-81
2022/05/22 02:15:06;;;;;;;0.60;0.60;;;4.30;99.90;;;;;;5078954;28;20217;-81
2022/05/22 02:17:32;;;;;;;0.70;0.70;;;4.30;99.90;;;;;;5061175;28;20196;-81
2022/05/22 02:19:59;;;;;;;0.88;0.88;;;4.30;99.90;;;;;;5061517;28;20197;-81
2022/05/22 02:22:25;;;;;;;0.70;0.70;;;4.40;99.90;;;;;;5060875;28;20200;-81
2022/05/22 02:24:51;;;;;;;0.70;0.70;;;4.40;99.90;;;;;;5061215;28;20203;-81
2022/05/22 02:27:17;;;;;;;0.60;0.60;;;4.40;99.90;;;;;;5061061;28;20604;-81
2022/05/22 02:29:43;;;;;;;0.60;0.60;;;4.40;99.90;;;;;;5061543;28;20200;-81
2022/05/22 02:32:09;;;;;;;0.55;0.55;;;4.40;99.90;;;;;;5078872;28;20686;-80
2022/05/22 02:34:35;;;;;;;0.70;0.70;;;4.40;99.90;;;;;;5077296;28;20221;-81
2022/05/22 02:37:01;;;;;;;0.93;0.93;;;4.40;99.90;;;;;;5077716;28;20197;-81
2022/05/22 02:39:27;;;;;;;0.80;0.80;;;4.40;99.90;;;;;;5076380;28;20254;-81
2022/05/22 02:41:52;;;;;;;0.68;0.68;;;4.40;99.90;;;;;;5078597;28;20196;-80
2022/05/22 02:44:18;;;;;;;0.60;0.60;;;4.40;99.90;;;;;;5077570;28;20309;-80
2022/05/22 02:46:44;;;;;;;0.73;0.73;;;4.40;99.90;;;;;;5077597;28;20204;-81
2022/05/22 02:49:09;;;;;;;0.73;0.73;;;4.40;99.90;;;;;;5076886;28;20201;-81
2022/05/22 02:51:36;;;;;;;0.60;0.60;;;4.40;99.90;;;;;;5076322;28;20287;-81
2022/05/22 02:54:01;;;;;;;0.70;0.70;;;4.40;99.90;;;;;;5077142;28;20205;-82
2022/05/22 02:56:27;;;;;;;0.70;0.70;;;4.30;99.90;;;;;;5059846;28;20197;-80
2022/05/22 02:58:53;;;;;;;0.90;0.90;;;4.30;99.90;;;;;;5067142;28;20632;-80
2022/05/22 03:01:19;;;;;;;0.68;0.68;;;4.30;99.90;;;;;;5059356;28;20201;-81
2022/05/22 03:03:46;;;;;;;0.68;0.68;;;4.30;99.90;;;;;;5078076;28;20197;-81
2022/05/22 03:08:56;;;;;;;0.73;0.73;;;4.20;99.90;;;;;;5078695;28;20700;-81
2022/05/22 03:11:22;;;;;;;0.77;0.77;;;4.30;99.90;;;;;;5059720;28;20295;-81
2022/05/22 03:13:47;;;;;;;1.42;1.33;;;4.20;99.90;;;;;;5059915;28;20224;-80
2022/05/22 03:16:13;;;;;;;0.73;0.73;;;4.30;99.90;;;;;;5059958;28;20642;-81
2022/05/22 03:18:39;;;;;;;0.70;0.70;;;4.30;99.90;;;;;;5060314;28;20280;-82
2022/05/22 03:21:05;;;;;;;0.70;0.70;;;4.30;99.90;;;;;;5059876;28;20220;-81
2022/05/22 03:23:31;;;;;;;0.90;0.90;;;4.40;99.90;;;;;;5059762;28;20197;-82
2022/05/22 03:25:57;;;;;;;0.90;0.90;;;4.50;99.90;;;;;;5077262;28;20635;-81
2022/05/22 03:28:23;;;;;;;1.00;1.00;;;4.60;99.90;;;;;;5059889;28;20192;-81
2022/05/22 03:30:50;;;;;;;0.90;0.90;;;4.70;99.90;;;;;;5060104;28;20201;-81
2022/05/22 03:33:16;;;;;;;0.60;0.60;;;4.80;99.90;;;;;;5059915;28;20654;-81
2022/05/22 03:35:41;;;;;;;0.60;0.60;;;4.90;99.90;;;;;;5059717;28;20226;-81
2022/05/22 03:38:07;;;;;;;0.70;0.70;;;5.00;99.90;;;;;;5059815;28;20292;-81
2022/05/22 03:40:40;;;;;;;2.50;1.30;;;5.10;99.90;;;;;;5059857;28;20193;-81
2022/05/22 03:43:06;;;;;;;0.88;0.88;;;5.20;99.90;;;;;;5077872;28;20196;-82
2022/05/22 03:45:32;;;;;;;0.70;0.70;;;5.30;99.90;;;;;;5059447;28;20196;-81
2022/05/22 03:47:57;;;;;;;0.70;0.70;;;5.40;99.90;;;;;;5058502;28;20661;-80
2022/05/22 03:50:24;;;;;;;0.90;0.90;;;5.50;99.90;;;;;;5058436;28;20204;-81
2022/05/22 03:52:51;;;;;;;0.65;0.65;;;5.60;99.90;;;;;;5059464;28;20258;-81
2022/05/22 03:55:17;;;;;;;0.63;0.63;;;5.60;99.90;;;;;;5060846;28;20303;-81
2022/05/22 03:57:47;;;;;;;0.70;0.70;;;5.70;99.90;;;;;;5077243;28;20189;-80
2022/05/22 04:00:16;;;;;;;1.25;0.90;;;5.80;99.90;;;;;;5077250;28;20242;-81
2022/05/22 04:02:42;;;;;;;0.90;0.90;;;5.90;99.90;;;;;;5059636;28;20259;-81
2022/05/22 04:05:08;;;;;;;0.60;0.60;;;6.10;99.90;;;;;;5059655;28;20192;-81
2022/05/22 04:07:38;;;;;;;1.45;1.27;;;6.10;99.90;;;;;;5059312;28;20204;-80
2022/05/22 04:10:05;;;;;;;0.80;0.80;;;6.30;99.90;;;;;;5059209;28;20254;-82
2022/05/22 04:12:31;;;;;;;0.70;0.70;;;6.30;99.90;;;;;;5058910;28;20205;-80
2022/05/22 04:14:57;;;;;;;0.60;0.60;;;6.40;99.90;;;;;;5055827;28;20233;-81
2022/05/22 04:17:23;;;;;;;0.70;0.70;;;6.50;99.90;;;;;;5072421;28;20193;-81
2022/05/22 04:19:49;;;;;;;1.02;1.02;;;6.70;99.90;;;;;;5056324;28;20202;-81
2022/05/22 04:22:15;;;;;;;0.70;0.70;;;6.80;99.90;;;;;;5056576;28;20224;-81
2022/05/22 04:27:25;;;;;;;1.08;0.98;;;6.90;99.90;;;;;;5057052;28;20208;-81
2022/05/22 04:29:51;;;;;;;0.70;0.70;;;7.00;99.90;;;;;;5055954;28;20201;-81
2022/05/22 04:32:16;;;;;;;0.70;0.70;;;7.10;99.90;;;;;;5055872;28;20247;-80
2022/05/22 04:34:42;;;;;;;2.58;1.80;;;7.20;99.90;;;;;;5057549;28;20213;-80
2022/05/22 04:37:08;;;;;;;0.95;0.95;;;7.30;99.90;;;;;;5057249;28;20193;-80
2022/05/22 04:39:34;;;;;;;0.70;0.70;;;7.40;99.90;;;;;;5055928;28;20715;-79
2022/05/22 04:42:00;;;;;;;1.05;1.05;;;7.50;99.90;;;;;;5055825;28;20202;-80
2022/05/22 04:44:25;;;;;;;0.70;0.70;;;7.60;99.90;;;;;;5055556;28;20194;-80
2022/05/22 04:46:51;;;;;;;1.00;0.90;;;7.70;99.90;;;;;;5056095;28;20683;-80
2022/05/22 04:49:17;;;;;;;1.27;1.23;;;7.90;99.90;;;;;;5057412;28;20198;-81
2022/05/22 04:51:42;;;;;;;0.80;0.80;;;8.00;99.90;;;;;;5058090;28;20288;-81
2022/05/22 04:54:09;;;;;;;0.90;0.90;;;8.10;99.90;;;;;;5055569;28;20676;-81
2022/05/22 04:56:35;;;;;;;1.00;1.00;;;8.20;99.90;;;;;;5055498;28;20198;-80
2022/05/22 04:59:01;;;;;;;1.33;1.15;;;8.30;99.90;;;;;;5056774;28;20336;-80
2022/05/22 05:01:26;;;;;;;0.80;0.80;;;8.50;99.90;;;;;;5035911;28;20643;-81
2022/05/22 05:03:52;;;;;;;0.80;0.80;;;8.60;99.90;;;;;;5039300;28;20236;-82
2022/05/22 05:06:19;;;;;;;0.57;0.57;;;8.80;99.90;;;;;;5039839;28;20562;-81
2022/05/22 05:08:44;;;;;;;0.73;0.73;;;9.00;99.90;;;;;;5039149;28;20217;-81
2022/05/22 05:11:12;;;;;;;0.70;0.70;;;9.20;99.90;;;;;;5039356;28;20202;-82
2022/05/22 05:13:38;;;;;;;0.80;0.80;;;9.30;99.90;;;;;;5039319;28;20237;-81
2022/05/22 05:16:05;;;;;;;0.60;0.60;;;9.50;99.90;;;;;;5039136;28;20213;-81
2022/05/22 05:18:32;;;;;;;1.42;1.33;;;9.70;99.90;;;;;;5050279;28;20242;-81
2022/05/22 05:21:01;;;;;;;0.70;0.70;;;10.00;99.90;;;;;;5059388;28;20285;-81
2022/05/22 05:23:27;;;;;;;0.85;0.85;;;10.10;99.90;;;;;;5059051;28;20202;-81
2022/05/22 05:25:52;;;;;;;0.60;0.60;;;10.30;99.90;;;;;;5059350;28;20774;-81
2022/05/22 05:28:18;;;;;;;0.70;0.70;;;10.50;99.90;;;;;;5060163;28;20193;-81
2022/05/22 05:30:44;;;;;;;1.00;0.93;;;10.70;99.90;;;;;;5058698;28;20221;-83
2022/05/22 05:33:10;;;;;;;0.85;0.73;;;10.90;99.90;;;;;;5058828;28;20686;-82
2022/05/22 05:35:36;;;;;;;0.63;0.63;;;11.00;99.90;;;;;;5058750;28;20202;-81
2022/05/22 05:38:02;;;;;;;0.57;0.57;;;11.10;99.90;;;;;;5060380;28;20229;-83
2022/05/22 05:40:27;;;;;;;0.60;0.60;;;11.40;99.90;;;;;;5058805;28;20197;-82
2022/05/22 05:42:54;;;;;;;0.60;0.60;;;11.60;99.90;;;;;;5058208;28;20185;-81
2022/05/22 05:45:20;;;;;;;0.70;0.70;;;11.80;99.90;;;;;;5058337;28;20288;-83
2022/05/22 05:47:48;;;;;;;0.60;0.60;;;12.00;99.90;;;;;;5076144;28;20197;-82
2022/05/22 05:50:16;;;;;;;0.60;0.60;;;12.40;99.90;;;;;;5075462;28;20219;-82
2022/05/22 05:52:42;;;;;;;1.70;1.23;;;12.40;99.90;;;;;;5059922;28;20193;-82
2022/05/22 05:55:08;;;;;;;0.55;0.55;;;12.60;99.90;;;;;;5075127;28;20232;-83
2022/05/22 05:57:35;;;;;;;0.50;0.50;;;12.70;99.90;;;;;;5075379;28;20197;-83
2022/05/22 06:00:01;;;;;;;0.80;0.80;;;12.90;99.90;;;;;;5059518;28;20196;-82
2022/05/22 06:02:26;;;;;;;0.50;0.50;;;13.00;99.90;;;;;;5058095;28;20194;-83
2022/05/22 06:04:52;;;;;;;0.50;0.50;;;13.10;99.90;;;;;;5058976;28;20198;-83
2022/05/22 06:07:18;;;;;;;0.70;0.70;;;13.40;99.90;;;;;;5060434;28;20198;-82
2022/05/22 06:09:43;;;;;;;0.60;0.60;;;13.60;99.90;;;;;;5059498;28;20204;-82
2022/05/22 06:12:09;;;;;;;0.70;0.70;;;13.60;99.90;;;;;;5059762;28;20206;-82
2022/05/22 06:14:35;;;;;;;8.98;1.45;;;13.60;99.90;;;;;;5061054;28;20264;-83
2022/05/22 06:17:01;;;;;;;0.68;0.68;;;13.50;99.90;;;;;;5063822;28;20288;-82
2022/05/22 06:22:15;;;;;;;0.40;0.40;;;13.40;99.90;;;;;;5064740;28;20209;-81
2022/05/22 06:24:40;;;;;;;0.47;0.47;;;13.40;99.90;;;;;;5063020;28;20289;-82
2022/05/22 06:27:06;;;;;;;0.63;0.63;;;13.20;99.90;;;;;;5063752;28;20209;-82
2022/05/22 06:29:32;;;;;;;0.55;0.55;;;13.00;99.90;;;;;;5059223;28;20264;-84
2022/05/22 06:31:58;;;;;;;0.60;0.60;;;12.90;99.90;;;;;;5056774;28;20198;-83
2022/05/22 06:34:24;;;;;;;0.50;0.50;;;12.90;99.90;;;;;;5055994;28;20236;-84
2022/05/22 06:36:51;;;;;;;0.70;0.70;;;12.80;99.90;;;;;;5056527;28;20652;-83
2022/05/22 06:42:02;;;;;;;0.40;0.40;;;12.80;99.90;;;;;;5058078;28;20563;-82
2022/05/22 06:44:28;;;;;;;0.73;0.73;;;12.90;99.90;;;;;;5056345;28;20229;-82
2022/05/22 06:46:54;;;;;;;0.70;0.70;;;13.00;99.90;;;;;;5060318;28;20209;-83
2022/05/22 06:49:19;;;;;;;0.40;0.40;;;13.20;99.90;;;;;;5077830;28;20243;-83
2022/05/22 06:51:46;;;;;;;0.50;0.50;;;13.40;99.90;;;;;;5060135;28;20677;-83
2022/05/22 06:54:12;;;;;;;0.65;0.65;;;13.60;99.90;;;;;;5059840;28;20274;-83
2022/05/22 06:56:38;;;;;;;0.65;0.65;;;14.20;99.90;;;;;;5059663;28;20197;-83
2022/05/22 06:59:06;;;;;;;0.63;0.63;;;14.60;99.90;;;;;;5052860;28;20266;-84
2022/05/22 07:01:32;;;;;;;1.73;1.58;;;15.10;99.90;;;;;;5052304;28;20230;-83
2022/05/22 07:03:58;;;;;;;1.60;1.02;;;15.30;99.90;;;;;;5052448;28;20209;-83
2022/05/22 07:06:23;;;;;;;0.63;0.63;;;15.60;99.90;;;;;;5052260;28;20252;-84
2022/05/22 07:08:49;;;;;;;0.52;0.52;;;16.00;99.90;;;;;;5037154;28;20645;-83
2022/05/22 07:13:59;;;;;;;0.40;0.40;;;16.10;99.90;;;;;;5063954;28;20286;-83
2022/05/22 07:26:40;;;;;;;0.65;0.57;;;16.10;99.90;;;;;;5074999;28;20208;-88
2022/05/22 07:32:40;;;;;;;0.30;0.30;;;16.80;99.90;;;;;;4992016;28;20415;-86
2022/05/22 07:35:46;;;;;;;0.68;0.68;;;17.10;99.90;;;;;;5015248;28;20199;-88
2022/05/22 07:38:12;;;;;;;0.40;0.40;;;16.80;99.90;;;;;;5000693;28;20237;-88
2022/05/22 07:40:38;;;;;;;0.60;0.45;;;16.50;99.90;;;;;;5002068;28;20194;-86
2022/05/22 07:43:04;;;;;;;0.40;0.40;;;17.00;99.90;;;;;;5010191;28;20732;-87
2022/05/22 07:52:23;;;;;;;0.60;0.60;;;17.20;99.90;;;;;;4932742;29;20245;-89
2022/05/22 07:54:49;;;;;;;0.30;0.30;;;17.40;99.90;;;;;;4943284;29;20686;-88
2022/05/22 07:57:15;;;;;;;0.40;0.40;;;16.80;99.90;;;;;;4954265;29;20225;-88
2022/05/22 07:59:41;;;;;;;0.30;0.30;;;16.20;99.90;;;;;;4981262;28;20207;-89
2022/05/22 08:02:12;;;;;;;0.55;0.55;;;15.90;99.90;;;;;;4981441;28;20271;-88
2022/05/22 08:04:38;;;;;;;0.40;0.40;;;15.50;99.90;;;;;;4982640;28;20223;-88
2022/05/22 08:07:04;;;;;;;0.30;0.30;;;14.90;99.90;;;;;;4993043;28;20244;-88
2022/05/22 08:09:30;;;;;;;0.57;0.57;;;14.80;99.90;;;;;;5041461;28;20258;-88
2022/05/22 08:11:59;;;;;;;0.30;0.30;;;14.80;99.90;;;;;;5058935;28;20193;-87
2022/05/22 08:14:24;;;;;;;0.40;0.40;;;15.20;99.90;;;;;;5059282;28;20232;-87
2022/05/22 08:17:24;;;;;;;0.30;0.30;;;15.40;99.90;;;;;;5078909;28;20220;-88
2022/05/22 08:19:51;;;;;;;0.40;0.40;;;15.30;99.90;;;;;;5060162;28;20224;-87
2022/05/22 08:25:45;;;;;;;3.13;1.40;;;15.30;99.90;;;;;;5072296;28;20234;-87
2022/05/22 08:28:11;;;;;;;0.40;0.40;;;15.60;99.90;;;;;;5077419;28;20207;-88
2022/05/22 08:33:34;;;;;;;1.20;0.80;;;15.90;99.90;;;;;;5041951;28;20227;-88
2022/05/22 08:36:00;;;;;;;0.30;0.30;;;16.40;99.90;;;;;;5059285;28;20204;-88
2022/05/22 08:38:25;;;;;;;0.60;0.60;;;16.40;99.90;;;;;;5062764;28;20189;-88
2022/05/22 08:41:18;;;;;;;0.70;0.70;;;16.00;99.90;;;;;;5063281;28;20197;-88
2022/05/22 08:43:48;;;;;;;0.40;0.40;;;15.90;99.90;;;;;;5051195;28;20209;-88
2022/05/22 08:46:37;;;;;;;0.32;0.32;;;16.10;99.90;;;;;;5063555;28;20201;-88
2022/05/22 08:49:15;;;;;;;0.30;0.30;;;16.10;99.90;;;;;;5059674;28;20219;-88
2022/05/22 08:51:45;;;;;;;0.60;0.60;;;16.20;99.90;;;;;;5081962;28;20650;-89
2022/05/22 08:54:14;;;;;;;0.60;0.60;;;16.10;99.90;;;;;;5080812;28;20659;-87
2022/05/22 08:59:31;;;;;;;0.32;0.32;;;16.30;99.90;;;;;;5082938;28;20200;-88
2022/05/22 09:01:57;;;;;;;1.65;1.15;;;15.90;99.90;;;;;;5081116;28;20200;-88
2022/05/22 09:04:31;;;;;;;0.30;0.30;;;15.50;99.90;;;;;;5065432;28;20196;-88
2022/05/22 09:07:27;;;;;;;1.75;0.95;;;15.40;99.90;;;;;;5064787;28;20717;-87
2022/05/22 09:10:02;;;;;;;0.50;0.50;;;15.30;99.90;;;;;;5064634;28;20205;-88
2022/05/22 09:12:41;;;;;;;0.60;0.60;;;15.70;99.90;;;;;;5064899;28;20203;-88
2022/05/22 09:15:10;;;;;;;0.52;0.52;;;16.80;99.90;;;;;;5097530;28;20558;-88
2022/05/22 09:18:01;;;;;;;0.50;0.50;;;17.40;99.90;;;;;;5084771;28;20196;-88
2022/05/22 09:21:01;;;;;;;0.40;0.40;;;17.10;99.90;;;;;;5047482;28;20227;-88
2022/05/22 09:23:42;;;;;;;0.95;0.77;;;16.70;99.90;;;;;;5085009;28;20192;-88
2022/05/22 09:26:18;;;;;;;0.43;0.43;;;16.40;99.90;;;;;;5103344;28;20192;-87
2022/05/22 09:29:12;;;;;;;1.30;0.80;;;16.00;99.90;;;;;;5103587;28;20187;-87
2022/05/22 09:32:05;;;;;;;0.70;0.70;;;16.00;99.90;;;;;;5081094;28;20243;-89
2022/05/22 09:34:52;;;;;;;0.95;0.77;;;16.30;99.90;;;;;;5082139;28;20209;-88
2022/05/22 09:37:30;;;;;;;0.30;0.30;;;16.40;99.90;;;;;;5080924;28;20191;-87
2022/05/22 09:40:21;;;;;;;0.40;0.40;;;16.20;99.90;;;;;;5084328;28;20215;-87
2022/05/22 09:43:06;;;;;;;0.52;0.52;;;15.90;99.90;;;;;;5084407;28;20234;-88
2022/05/22 09:46:01;;;;;;;0.50;0.50;;;15.80;99.90;;;;;;5083656;28;20250;-88
2022/05/22 09:48:39;;;;;;;0.30;0.30;;;16.00;99.90;;;;;;5042546;28;20198;-88
2022/05/22 09:51:10;;;;;;;0.45;0.45;;;15.70;99.90;;;;;;5043657;28;20233;-87
2022/05/22 09:57:04;;;;;;;0.50;0.50;;;15.60;99.90;;;;;;5062882;28;20255;-87
2022/05/22 09:59:45;;;;;;;3.25;0.98;;;15.40;99.90;;;;;;5063607;28;20674;-87
2022/05/22 10:02:35;;;;;;;1.20;1.10;;;15.40;99.90;;;;;;5081563;28;20189;-88
2022/05/22 10:05:16;;;;;;;0.68;0.65;;;15.40;99.90;;;;;;5080277;28;20196;-87
2022/05/22 10:08:13;;;;;;;0.50;0.50;;;15.40;99.90;;;;;;5063654;28;20204;-87
2022/05/22 10:10:57;;;;;;;0.40;0.40;;;15.40;99.90;;;;;;5062650;28;20787;-88
2022/05/22 10:13:31;;;;;;;0.73;0.57;;;15.30;99.90;;;;;;5062855;28;20683;-87
2022/05/22 10:15:57;;;;;;;0.60;0.60;;;15.20;99.90;;;;;;5080815;28;20698;-87
2022/05/22 10:18:49;;;;;;;0.60;0.60;;;15.30;99.90;;;;;;5063657;28;20196;-88
2022/05/22 10:21:27;;;;;;;0.50;0.50;;;15.30;99.90;;;;;;5082148;28;20558;-88
2022/05/22 10:24:30;;;;;;;0.50;0.50;;;15.40;99.90;;;;;;5064387;28;20207;-87
2022/05/22 10:27:08;;;;;;;0.63;0.63;;;15.50;99.90;;;;;;5064860;28;20192;-87
2022/05/22 10:29:36;;;;;;;0.40;0.40;;;15.50;99.90;;;;;;5063172;28;20655;-88
2022/05/22 10:32:15;;;;;;;0.98;0.88;;;15.50;99.90;;;;;;5063918;28;20197;-87
2022/05/22 10:34:54;;;;;;;0.40;0.40;;;15.60;99.90;;;;;;5064068;28;20227;-88
2022/05/22 10:37:20;;;;;;;0.45;0.45;;;15.80;99.90;;;;;;5063421;28;20203;-87
2022/05/22 10:39:46;;;;;;;0.50;0.50;;;15.90;99.90;;;;;;5063837;28;20284;-88
2022/05/22 10:42:47;;;;;;;0.30;0.30;;;15.90;99.90;;;;;;5063558;28;20192;-87
2022/05/22 10:45:37;;;;;;;0.40;0.40;;;16.60;99.90;;;;;;5063413;28;20271;-86
2022/05/22 10:48:23;;;;;;;0.30;0.30;;;17.70;99.90;;;;;;5062629;28;20203;-87
2022/05/22 10:51:02;;;;;;;0.50;0.50;;;18.30;99.90;;;;;;5063479;28;20232;-88
2022/05/22 10:53:33;;;;;;;0.50;0.50;;;18.00;99.90;;;;;;5062233;28;20211;-88
2022/05/22 10:56:26;;;;;;;0.40;0.40;;;18.50;99.90;;;;;;5062210;28;20201;-88
2022/05/22 10:59:18;;;;;;;0.52;0.22;;;19.30;99.90;;;;;;5059493;28;20193;-88
2022/05/22 11:01:44;;;;;;;0.28;0.28;;;19.20;99.90;;;;;;5060475;28;20194;-88
2022/05/22 11:04:17;;;;;;;0.40;0.40;;;18.70;99.90;;;;;;5059823;28;20197;-87
2022/05/22 11:06:59;;;;;;;0.43;0.43;;;18.30;99.90;;;;;;5059109;28;20208;-88
2022/05/22 11:09:34;;;;;;;0.30;0.30;;;18.90;99.90;;;;;;5060799;28;20236;-88
2022/05/22 11:12:10;;;;;;;0.30;0.30;;;19.80;99.90;;;;;;5059928;28;20258;-89
2022/05/22 11:14:36;;;;;;;0.30;0.30;;;20.30;99.90;;;;;;5058731;28;20589;-89
2022/05/22 11:17:20;;;;;;;0.30;0.30;;;20.80;95.30;;;;;;5044065;28;20196;-89
2022/05/22 11:19:48;;;;;;;0.25;0.25;;;20.00;94.90;;;;;;5059949;28;20335;-89
2022/05/22 11:22:58;;;;;;;2.92;0.65;;;19.80;95.40;;;;;;5062685;28;20205;-90
2022/05/22 11:36:19;;;;;;;0.85;0.50;;;20.70;97.80;;;;;;4975531;28;20241;-87
2022/05/22 11:42:55;;;;;;;0.20;0.20;;;21.80;87.80;;;;;;4972985;29;20583;-86
2022/05/22 12:03:46;;;;;;;0.47;0.47;;;21.60;73.30;;;;;;4876344;29;20235;-86
2022/05/22 12:14:23;;;;;;;1.35;0.90;;;22.80;83.50;;;;;;4851549;29;20219;-83
2022/05/22 12:16:39;;;;;;;0.20;0.20;;;23.40;74.10;;;;;;4834801;29;20733;-82
2022/05/22 12:19:35;;;;;;;1.05;0.45;;;23.10;67.90;;;;;;4809871;29;20251;-82
2022/05/22 12:22:18;;;;;;;0.10;0.10;;;22.80;73.30;;;;;;4828732;29;20607;-83
2022/05/22 12:25:02;;;;;;;0.30;0.30;;;22.30;69.20;;;;;;4846236;29;20211;-82
2022/05/22 12:27:31;;;;;;;0.20;0.20;;;21.70;72.10;;;;;;4862207;29;20214;-83
2022/05/22 12:30:03;;;;;;;0.22;0.22;;;21.80;69.50;;;;;;4855368;29;20223;-82
2022/05/22 12:32:32;;;;;;;0.30;0.30;;;22.00;73.50;;;;;;4887618;29;20720;-82
2022/05/22 12:35:00;;;;;;;0.40;0.40;;;22.50;78.30;;;;;;4899380;29;20748;-82
2022/05/22 12:37:48;;;;;;;0.30;0.30;;;22.90;68.80;;;;;;4899305;29;20213;-82
2022/05/22 12:40:19;;;;;;;0.32;0.32;;;23.40;71.50;;;;;;4955360;29;20241;-82
2022/05/22 12:42:51;;;;;;;0.45;0.45;;;23.30;72.00;;;;;;4970765;28;20204;-82
2022/05/22 12:45:17;;;;;;;0.20;0.20;;;22.70;64.90;;;;;;4956000;29;20264;-82
2022/05/22 12:47:51;;;;;;;0.32;0.32;;;22.60;69.40;;;;;;4956308;29;20204;-82
2022/05/22 12:50:26;;;;;;;0.25;0.25;;;22.20;66.80;;;;;;4983597;28;20212;-82
2022/05/22 12:52:53;;;;;;;0.20;0.20;;;22.60;69.60;;;;;;5035256;28;20202;-83
2022/05/22 12:55:27;;;;;;;0.47;0.40;;;22.40;68.10;;;;;;5018537;28;20760;-83
2022/05/22 12:57:56;;;;;;;0.32;0.32;;;22.20;69.30;;;;;;5034389;28;20257;-83
2022/05/22 13:00:34;;;;;;;0.35;0.35;;;22.50;69.80;;;;;;5034713;28;20199;-84
2022/05/22 13:03:13;;;;;;;0.30;0.30;;;22.50;65.10;;;;;;5036252;28;20205;-83
2022/05/22 13:05:40;;;;;;;0.25;0.25;;;22.00;65.50;;;;;;5018348;28;20738;-82
2022/05/22 13:08:24;;;;;;;0.40;0.40;;;22.10;69.40;;;;;;5018825;28;20672;-82
2022/05/22 13:10:55;;;;;;;0.30;0.30;;;22.10;71.30;;;;;;5035160;28;20198;-82
2022/05/22 13:13:27;;;;;;;0.20;0.20;;;22.10;71.30;;;;;;5034862;28;20256;-83
2022/05/22 13:16:08;;;;;;;0.65;0.60;;;22.70;72.40;;;;;;5043535;28;20252;-83
2022/05/22 13:18:49;;;;;;;0.32;0.32;;;22.60;65.30;;;;;;5034965;28;20233;-83
2022/05/22 13:21:39;;;;;;;0.40;0.40;;;22.70;67.30;;;;;;5036252;28;20217;-83
2022/05/22 13:24:23;;;;;;;0.35;0.35;;;22.80;64.10;;;;;;5054271;28;20202;-83
2022/05/22 13:27:05;;;;;;;0.70;0.47;;;22.30;66.40;;;;;;5044188;28;20201;-83
2022/05/22 13:29:52;;;;;;;0.30;0.30;;;22.60;70.30;;;;;;5052656;28;20201;-83
2022/05/22 13:32:24;;;;;;;2.38;0.88;;;23.10;68.60;;;;;;5058423;28;20221;-84
2022/05/22 13:34:51;;;;;;;0.20;0.20;;;23.50;69.30;;;;;;5059824;28;20601;-82
2022/05/22 13:37:27;;;;;;;0.25;0.25;;;23.50;66.70;;;;;;5057922;28;20219;-83
2022/05/22 13:40:11;;;;;;;0.30;0.30;;;23.10;70.50;;;;;;5058175;28;20196;-83
2022/05/22 13:42:49;;;;;;;0.20;0.20;;;23.00;64.30;;;;;;5061476;28;20193;-84
2022/05/22 13:45:28;;;;;;;0.20;0.20;;;22.80;67.90;;;;;;5061782;28;20200;-82
2022/05/22 13:48:12;;;;;;;0.30;0.30;;;23.00;66.50;;;;;;5058059;28;20197;-83
2022/05/22 13:54:09;;;;;;;0.20;0.20;;;22.80;67.60;;;;;;5079811;28;20300;-84
2022/05/22 13:56:51;;;;;;;0.22;0.22;;;23.00;68.80;;;;;;5061758;28;20204;-83
2022/05/22 13:59:24;;;;;;;0.60;0.35;;;23.30;67.80;;;;;;5054612;28;20209;-84
2022/05/22 14:01:52;;;;;;;0.22;0.22;;;23.10;64.90;;;;;;5054873;28;20194;-83
2022/05/22 14:04:19;;;;;;;0.35;0.35;;;23.00;64.00;;;;;;5054997;28;20206;-83
2022/05/22 14:06:51;;;;;;;1.00;0.50;;;22.90;63.40;;;;;;5054642;28;20206;-83
2022/05/22 14:09:30;;;;;;;0.38;0.38;;;22.50;62.80;;;;;;5039473;28;20194;-83
2022/05/22 14:11:56;;;;;;;3.33;0.68;;;22.30;63.80;;;;;;5054404;28;20198;-84
2022/05/22 14:14:28;;;;;;;1.05;0.50;;;22.70;70.30;;;;;;5057752;28;20204;-84
2022/05/22 14:17:02;;;;;;;0.63;0.40;;;23.00;66.10;;;;;;5077655;28;20216;-83
2022/05/22 14:19:37;;;;;;;0.20;0.20;;;23.30;66.30;;;;;;5078792;28;20193;-84
2022/05/22 14:22:14;;;;;;;0.10;0.10;;;23.30;66.00;;;;;;5061174;28;20193;-84
2022/05/22 14:24:53;;;;;;;0.20;0.20;;;23.40;64.80;;;;;;5078803;28;20243;-84
2022/05/22 14:27:43;;;;;;;0.20;0.20;;;23.80;61.30;;;;;;5060767;28;20220;-85
2022/05/22 14:30:24;;;;;;;0.20;0.20;;;23.50;62.60;;;;;;5061008;28;20211;-84
2022/05/22 14:32:59;;;;;;;0.20;0.20;;;23.30;63.80;;;;;;5079605;28;20227;-83
2022/05/22 14:35:35;;;;;;;0.57;0.47;;;22.80;61.00;;;;;;5058537;28;20235;-83
2022/05/22 14:38:20;;;;;;;0.40;0.40;;;22.10;59.90;;;;;;5061494;28;20189;-84
2022/05/22 14:40:58;;;;;;;0.20;0.20;;;21.90;65.10;;;;;;5080661;28;20196;-84
2022/05/22 14:44:00;;;;;;;0.30;0.30;;;22.40;64.90;;;;;;5080852;28;20215;-84
2022/05/22 14:46:45;;;;;;;0.17;0.17;;;22.60;61.80;;;;;;5080887;28;20191;-84